Station: Tfs B  

  Atmospheric Gas Attenuation - ITU Rec 676-11   ----------------- dB/100km -----------------
Date Time Temp RH % AH g/m3 Dew Point Wind Direction Speed kph Gust kph Barometer mB Rainfall Since 9am 24GHz 47GHz 76GHz 122GHz 134GHz 241GHz
08/05 12:30 19.9 39 6.7 5.6 7 11 1013.1 0 15.3 21.4 30.1 78.6 68.7 235.2
08/05 12:20 19 41 6.68 5.7 7 9 1013.1 0 15.3 21.6 30.4 79.3 69.3 237.0
08/05 12:10 18.8 44 7.09 6.4 7 11 1013.1 0 16.2 22.3 31.9 83.4 74.2 254.2
08/05 12:00 18.5 43 6.8 5.7 7 11 1013.1 0 15.6 21.9 31.0 80.9 71.1 243.3
08/05 11:50 18.3 45 7.04 6.4 9 11 1013.1 0 16.1 22.3 31.9 83.4 74.1 253.7
08/05 11:40 17.3 46 6.78 5.8 7 9 1013.1 0 15.6 22.2 31.4 82.0 71.9 246.1
08/05 11:30 16.2 52 7.17 6.4 7 9 1013.1 0 16.4 23.0 33.2 86.9 77.6 265.9
08/05 11:20 17.7 48 7.24 6.7 7 13 1013.1 0 16.5 22.7 32.9 86.0 77.0 264.0
08/05 11:00 17.8 48 7.28 6.8 9 9 1013.1 0 16.6 22.8 33.0 86.2 77.4 265.3
08/05 10:50 17.6 46 6.9 5.8 7 9 1013.1 0 15.8 22.3 31.7 82.8 73.1 250.2
08/05 10:30 16.8 48 6.86 5.7 9 9 1013.1 0 15.8 22.4 31.8 83.2 73.3 251.0
08/05 10:20 16.6 51 7.2 6.6 7 11 1013.1 0 16.5 23.0 33.2 86.7 77.6 265.9
08/05 10:10 16.3 50 6.94 6 9 11 1013.1 0 16.0 22.7 32.3 84.5 74.7 255.9
08/05 10:00 16.1 52 7.13 6.2 9 11 1013.1 0 16.4 23.0 33.1 86.6 77.2 264.6
08/05 09:50 15.7 49 6.56 5.2 9 11 1013.1 0 15.2 22.2 31.2 81.5 70.7 241.8
08/05 09:40 15 53 6.8 5.7 11 15 1013.1 0 15.7 22.8 32.3 84.5 74.3 254.1
08/05 09:30 14.8 53 6.71 5.4 9 11 1013.1 0 15.5 22.7 32.1 83.8 73.4 250.9
08/05 09:20 14.8 55 6.97 5.9 6 7 1013.1 0 16.1 23.1 33.0 86.4 76.5 262.0
08/05 09:10 14.6 53 6.63 5.3 6 7 1013.1 0 15.4 22.6 31.9 83.3 72.6 248.1
08/05 09:00 14.5 53 6.59 5.1 6 7 1013.1 0 15.3 22.6 31.8 83.0 72.2 246.7
08/05 08:50 14.4 51 6.3 4.5 6 7 1013.1 0 14.7 22.2 30.7 80.2 68.8 234.7
08/05 08:40 14.5 51 6.34 4.5 7 11 1013.1 0 14.8 22.2 30.8 80.5 69.2 236.1
08/05 08:30 13.7 54 6.39 4.5 7 9 1013.1 0 14.9 22.5 31.3 81.8 70.5 240.6
08/05 08:20 12.8 55 6.16 4.1 7 11 1013.1 0 14.4 22.4 30.8 80.5 68.5 233.4
08/05 08:10 12.6 58 6.42 4.5 9 11 1013.1 0 15.0 22.8 31.9 83.3 71.8 245.2
08/05 08:00 12.3 57 6.19 4.2 9 13 1013.1 0 14.5 22.5 31.1 81.3 69.3 236.2
08/05 07:50 12.1 59 6.33 4.4 7 9 1013.1 0 14.8 22.8 31.7 82.9 71.2 242.8
08/05 07:40 12.1 57 6.11 3.9 7 11 1013.1 0 14.4 22.5 30.9 80.7 68.5 233.3
08/05 07:30 11.6 61 6.34 4.3 7 11 1013.1 0 14.9 22.9 32.0 83.5 71.7 244.8
08/05 07:20 11.4 63 6.47 4.6 7 11 1013.1 0 15.1 23.2 32.5 85.0 73.6 251.1
08/05 07:10 10.9 64 6.37 4.5 6 11 1013.1 0 15.0 23.2 32.4 84.5 72.8 248.3
08/05 07:00 10.5 68 6.6 4.9 4 6 1013.1 0 15.5 23.6 33.4 87.3 76.1 259.8
08/05 06:50 10.5 68 6.6 4.9 6 6 1013.1 0 15.5 23.6 33.4 87.3 76.1 259.8
08/05 06:40 10.1 69 6.53 4.8 6 7 1013.1 0 15.3 23.6 33.3 87.1 75.6 258.0
08/05 06:30 10.4 69 6.65 5 6 7 1013.1 0 15.6 23.7 33.6 88.0 76.8 262.4
08/05 06:20 10.7 69 6.78 5.3 6 7 1013.1 0 15.8 23.8 34.0 89.0 78.2 267.2
08/05 06:10 10.6 67 6.54 4.8 4 6 1013.1 0 15.3 23.5 33.1 86.6 75.2 256.8
08/05 06:00 10.8 65 6.43 4.6 4 6 1013.1 0 15.1 23.3 32.6 85.3 73.6 251.3
08/05 05:50 10.6 63 6.15 4 6 11 1013.1 0 14.5 22.9 31.6 82.6 70.3 239.5
08/05 05:40 10.1 70 6.62 4.9 4 6 1013.1 0 15.5 23.8 33.7 88.0 76.7 262.0
08/05 05:30 9.7 71 6.55 4.8 4 6 1013.1 0 15.4 23.7 33.5 87.7 76.2 260.2
08/05 05:20 10.3 70 6.71 5.1 4 6 1013.1 0 15.7 23.8 33.9 88.7 77.7 265.4
08/05 05:00 11.4 65 6.67 5.2 4 6 1013.1 0 15.6 23.5 33.3 87.1 76.1 260.0
08/05 04:30 12.2 60 6.48 4.8 7 9 1013.1 0 15.1 23.0 32.3 84.3 72.9 249.1
08/05 04:20 12.1 60 6.44 4.6 7 9 1013.1 0 15.1 23.0 32.1 84.0 72.5 247.6
08/05 04:10 12.1 59 6.33 4.4 7 15 1013.1 0 14.8 22.8 31.7 82.9 71.2 242.8
08/05 04:00 12 60 6.4 4.5 7 13 1013.1 0 15.0 22.9 32.0 83.7 72.1 246.2
08/05 03:50 11.9 61 6.46 4.7 7 9 1013.1 0 15.1 23.0 32.3 84.4 73.0 249.1
08/05 03:40 11.7 62 6.49 4.7 7 9 1013.1 0 15.2 23.1 32.5 84.9 73.5 251.1
08/05 03:30 11.5 65 6.71 5.2 6 7 1013.1 0 15.7 23.5 33.4 87.4 76.5 261.4
08/05 03:20 11.8 65 6.84 5.4 6 9 1013.1 0 15.9 23.6 33.8 88.4 77.8 266.2
08/05 03:10 11.7 65 6.8 5.4 6 9 1013.1 0 15.8 23.6 33.7 88.1 77.4 264.8
08/05 03:00 11.3 69 7.04 5.9 6 6 1013.1 0 16.4 24.1 34.8 91.0 80.9 276.9
08/05 02:50 11.2 73 7.4 6.5 6 9 1013.1 0 17.1 24.7 36.2 94.9 85.7 293.6
08/05 02:40 10.7 77 7.56 6.8 6 7 1013.1 0 17.5 25.1 37.1 97.2 88.4 302.9
08/05 02:30 11.6 73 7.59 7 2 4 1013.1 0 17.5 24.9 36.8 96.5 87.7 300.9
08/05 02:20 12.2 70 7.55 7 4 7 1013.1 0 17.4 24.7 36.4 95.3 86.5 296.8
08/05 02:10 12.7 68 7.57 6.9 7 13 1013.1 0 17.4 24.6 36.2 94.9 86.2 295.8
08/05 02:00 12.8 67 7.51 6.8 9 11 1013.1 0 17.3 24.4 36.0 94.2 85.4 292.7
08/05 01:50 12.7 66 7.35 6.6 7 11 1013.1 0 17.0 24.2 35.4 92.6 83.4 285.9
08/05 01:40 12.7 65 7.24 6.4 9 11 1013.1 0 16.7 24.0 34.9 91.5 82.0 281.0
08/05 01:30 12.2 67 7.23 6.3 7 11 1013.1 0 16.7 24.2 35.1 92.0 82.4 282.3
08/05 01:20 11.3 72 7.35 6.4 7 13 1013.1 0 17.0 24.6 36.0 94.3 84.9 291.0
08/05 01:10 8.7 87 7.53 6.7 4 6 1013.1 0 17.5 25.6 37.9 99.4 90.3 309.3
08/05 01:00 8.8 88 7.66 7 4 6 1013.1 0 17.8 25.8 38.4 100.7 91.9 315.1
08/05 00:50 9.5 88 8.01 7.7 6 7 1013.1 0 18.5 26.2 39.5 103.7 95.9 329.0
08/05 00:30 11.7 82 8.58 8.7 4 6 1013.1 0 19.6 26.5 40.8 107.0 100.8 346.7
08/05 00:20 12.1 80 8.58 8.7 6 7 1013.1 0 19.6 26.4 40.6 106.5 100.3 344.9
08/05 00:10 12.1 80 8.58 8.7 6 9 1013.1 0 19.6 26.4 40.6 106.5 100.3 344.9
08/05 00:00 12 81 8.63 8.8 6 7 1013.1 0 19.7 26.5 40.8 107.2 101.1 347.7
07/05 23:50 11.9 81 8.58 8.8 4 7 1013.1 0 19.6 26.4 40.7 106.8 100.6 345.8
07/05 23:40 11.6 82 8.52 8.7 6 7 1013.1 0 19.5 26.4 40.6 106.5 100.1 344.3
07/05 23:30 11.3 84 8.57 8.7 4 6 1013.1 0 19.6 26.6 40.9 107.5 101.2 348.0
07/05 23:20 10.9 84 8.36 8.4 6 9 1013.1 0 19.2 26.3 40.3 105.7 98.9 339.7
07/05 23:10 9.5 91 8.29 8.1 4 6 1013.1 0 19.1 26.7 40.7 106.8 99.7 342.5
07/05 23:00 8.3 95 8.01 7.5 4 6 1013.1 0 18.6 26.5 40.1 105.3 97.4 334.1
07/05 22:40 9.2 91 8.13 7.8 4 4 1013.1 0 18.8 26.5 40.2 105.4 97.9 336.1
07/05 22:30 9.5 91 8.29 8.1 4 6 1013.1 0 19.1 26.7 40.7 106.8 99.7 342.5
07/05 22:20 9.8 90 8.35 8.2 4 6 1013.1 0 19.2 26.7 40.8 107.1 100.2 344.1
07/05 22:10 9.9 90 8.41 8.4 2 4 1013.1 0 19.4 26.7 41.0 107.6 100.9 346.6
07/05 22:00 10.1 88 8.32 8.3 4 6 1013.1 0 19.2 26.5 40.5 106.4 99.4 341.3
07/05 21:50 10.1 88 8.32 8.2 4 6 1013.1 0 19.2 26.5 40.5 106.4 99.4 341.3
07/05 21:40 10.1 88 8.32 8.3 4 7 1013.1 0 19.2 26.5 40.5 106.4 99.4 341.3
07/05 21:30 10.2 87 8.28 8.2 6 6 1013.1 0 19.1 26.4 40.3 105.8 98.7 339.0
07/05 21:20 10.4 86 8.29 8.2 7 11 1013.1 0 19.1 26.4 40.2 105.6 98.6 338.6
07/05 21:10 10.3 86 8.24 8.1 7 9 1013.1 0 19.0 26.3 40.1 105.2 98.0 336.6
07/05 21:00 10.5 83 8.05 7.8 7 11 1013.1 0 18.6 26.0 39.2 102.8 95.2 326.7
07/05 20:40 10.7 82 8.06 7.8 9 11 1013.1 0 18.6 25.9 39.1 102.7 95.0 326.4
07/05 20:30 10.8 81 8.01 7.7 9 11 1013.1 0 18.5 25.8 38.9 102.0 94.3 323.6
07/05 20:20 10.8 81 8.01 7.7 9 13 1013.1 0 18.5 25.8 38.9 102.0 94.3 323.6
07/05 20:10 10.8 80 7.91 7.6 9 11 1013.1 0 18.3 25.6 38.5 100.9 92.9 318.9
07/05 20:00 10.8 79 7.81 7.3 11 15 1013.1 0 18.0 25.5 38.1 99.8 91.6 314.2
07/05 19:50 10.7 79 7.76 7.2 9 13 1013.1 0 17.9 25.4 37.9 99.4 91.0 312.2
07/05 19:40 10.6 77 7.52 6.8 9 15 1013.1 0 17.4 25.1 37.0 96.9 87.9 301.4
07/05 19:30 10.3 78 7.47 6.6 7 9 1013.1 0 17.3 25.1 36.9 96.8 87.6 300.3
07/05 19:20 10 78 7.33 6.3 7 13 1013.1 0 17.0 24.9 36.5 95.6 86.1 294.9
07/05 19:10 9.8 78 7.24 6.1 6 7 1013.1 0 16.9 24.8 36.2 94.9 85.1 291.5
07/05 19:00 9.5 78 7.1 5.9 7 9 1013.1 0 16.6 24.7 35.8 93.8 83.6 286.1
07/05 18:50 9.4 77 6.97 5.6 6 7 1013.1 0 16.3 24.5 35.3 92.5 82.0 280.4
07/05 18:40 9.6 74 6.78 5.2 6 9 1013.1 0 15.9 24.1 34.5 90.2 79.3 271.0

Last Refresh: 08-May-2026 12:10:19

Bureau of Meteorology